Ray, Indiana
Current Conditions -  °F | °C
As of 11:15 AM on Saturday 25 Oct 2014 (Local Time) from KANQ Reporting Station
Overcast Overcast  
Wind Chill: 55°   Ceiling: 700
Heat Index: 55°   Visibility: 5mi
Dew Point: 48°   Wind: 10mph
Humidity: 77%   Direction: 280°W
Pressure: 29.89"   Gusts: NA
Location:  41.7284°N, 84.9169°W
Report Text: KANQ 251515Z AUTO 28009KT 5SM OVC007 13/09 A2989 RMK
Loading
Personal Weather Stations






























Interactive Weather Map
Tropical Storm Tracking
New forecast layout! Learn more

10-Day Weather Forecast

Advertisements
Track Severe Weather on mobile